sensor_id;sensor_type;location;lat;lon;timestamp;temperature;humidity
19817;DHT22;68323;49.394;8.434;2024-02-14T00:00:11;6.80;99.90
19817;DHT22;68323;49.394;8.434;2024-02-14T00:02:45;6.80;99.90
19817;DHT22;68323;49.394;8.434;2024-02-14T00:05:15;6.80;99.90
19817;DHT22;68323;49.394;8.434;2024-02-14T00:07:41;7.10;99.90
19817;DHT22;68323;49.394;8.434;2024-02-14T00:10:07;6.90;99.90
19817;DHT22;68323;49.394;8.434;2024-02-14T00:12:33;7.00;99.90
19817;DHT22;68323;49.394;8.434;2024-02-14T00:14:59;7.00;99.90
19817;DHT22;68323;49.394;8.434;2024-02-14T00:17:25;7.00;99.90
19817;DHT22;68323;49.394;8.434;2024-02-14T00:19:50;7.10;99.90
19817;DHT22;68323;49.394;8.434;2024-02-14T00:22:16;7.10;99.90
19817;DHT22;68323;49.394;8.434;2024-02-14T00:24:42;7.20;99.90
19817;DHT22;68323;49.394;8.434;2024-02-14T00:27:07;7.20;99.90
19817;DHT22;68323;49.394;8.434;2024-02-14T00:29:47;7.20;99.90
19817;DHT22;68323;49.394;8.434;2024-02-14T00:32:13;7.20;99.90
19817;DHT22;68323;49.394;8.434;2024-02-14T00:34:39;7.30;99.90
19817;DHT22;68323;49.394;8.434;2024-02-14T00:37:05;7.30;99.90
19817;DHT22;68323;49.394;8.434;2024-02-14T00:39:30;7.30;99.90
19817;DHT22;68323;49.394;8.434;2024-02-14T00:41:56;7.30;99.90
19817;DHT22;68323;49.394;8.434;2024-02-14T00:44:22;7.30;99.90
19817;DHT22;68323;49.394;8.434;2024-02-14T00:46:47;7.40;99.90
19817;DHT22;68323;49.394;8.434;2024-02-14T00:49:14;7.30;99.90
19817;DHT22;68323;49.394;8.434;2024-02-14T00:51:39;7.30;99.90
19817;DHT22;68323;49.394;8.434;2024-02-14T00:54:06;7.40;99.90
19817;DHT22;68323;49.394;8.434;2024-02-14T00:56:32;7.40;99.90
19817;DHT22;68323;49.394;8.434;2024-02-14T00:58:57;7.40;99.90
19817;DHT22;68323;49.394;8.434;2024-02-14T01:01:23;7.40;99.90
19817;DHT22;68323;49.394;8.434;2024-02-14T01:03:48;7.40;99.90
19817;DHT22;68323;49.394;8.434;2024-02-14T01:06:15;7.40;99.90
19817;DHT22;68323;49.394;8.434;2024-02-14T01:08:41;7.40;99.90
19817;DHT22;68323;49.394;8.434;2024-02-14T01:11:08;7.40;99.90
19817;DHT22;68323;49.394;8.434;2024-02-14T01:13:34;7.40;99.90
19817;DHT22;68323;49.394;8.434;2024-02-14T01:15:59;7.40;99.90
19817;DHT22;68323;49.394;8.434;2024-02-14T01:18:25;7.40;99.90
19817;DHT22;68323;49.394;8.434;2024-02-14T01:20:50;7.40;99.90
19817;DHT22;68323;49.394;8.434;2024-02-14T01:23:16;7.50;99.90
19817;DHT22;68323;49.394;8.434;2024-02-14T01:25:41;7.30;99.90
19817;DHT22;68323;49.394;8.434;2024-02-14T01:28:09;7.30;99.90
19817;DHT22;68323;49.394;8.434;2024-02-14T01:30:34;7.30;99.90
19817;DHT22;68323;49.394;8.434;2024-02-14T01:33:01;7.20;99.90
19817;DHT22;68323;49.394;8.434;2024-02-14T01:35:29;7.20;99.90
19817;DHT22;68323;49.394;8.434;2024-02-14T01:37:54;7.20;99.90
19817;DHT22;68323;49.394;8.434;2024-02-14T01:40:20;7.30;99.90
19817;DHT22;68323;49.394;8.434;2024-02-14T01:42:46;7.40;99.90
19817;DHT22;68323;49.394;8.434;2024-02-14T01:45:12;7.40;99.90
19817;DHT22;68323;49.394;8.434;2024-02-14T01:47:38;7.40;99.90
19817;DHT22;68323;49.394;8.434;2024-02-14T01:50:06;7.40;99.90
19817;DHT22;68323;49.394;8.434;2024-02-14T01:52:35;7.40;99.90
19817;DHT22;68323;49.394;8.434;2024-02-14T01:55:02;7.50;99.90
19817;DHT22;68323;49.394;8.434;2024-02-14T01:57:29;7.50;99.90
19817;DHT22;68323;49.394;8.434;2024-02-14T01:59:56;7.60;99.90
19817;DHT22;68323;49.394;8.434;2024-02-14T02:02:23;7.60;99.90
19817;DHT22;68323;49.394;8.434;2024-02-14T02:04:49;7.60;99.90
19817;DHT22;68323;49.394;8.434;2024-02-14T02:07:16;7.60;99.90
19817;DHT22;68323;49.394;8.434;2024-02-14T02:09:44;7.60;99.90
19817;DHT22;68323;49.394;8.434;2024-02-14T02:12:09;7.70;99.90
19817;DHT22;68323;49.394;8.434;2024-02-14T02:14:35;7.60;99.90
19817;DHT22;68323;49.394;8.434;2024-02-14T02:17:01;7.70;99.90
19817;DHT22;68323;49.394;8.434;2024-02-14T02:19:27;7.70;99.90
19817;DHT22;68323;49.394;8.434;2024-02-14T02:21:52;7.70;99.90
19817;DHT22;68323;49.394;8.434;2024-02-14T02:24:18;7.70;99.90
19817;DHT22;68323;49.394;8.434;2024-02-14T02:26:44;7.70;99.90
19817;DHT22;68323;49.394;8.434;2024-02-14T02:29:10;7.70;99.90
19817;DHT22;68323;49.394;8.434;2024-02-14T02:31:36;7.70;99.90
19817;DHT22;68323;49.394;8.434;2024-02-14T02:34:03;7.60;99.90
19817;DHT22;68323;49.394;8.434;2024-02-14T02:36:28;7.60;99.90
19817;DHT22;68323;49.394;8.434;2024-02-14T02:38:56;7.60;99.90
19817;DHT22;68323;49.394;8.434;2024-02-14T02:41:22;7.50;99.90
19817;DHT22;68323;49.394;8.434;2024-02-14T02:43:47;7.50;99.90
19817;DHT22;68323;49.394;8.434;2024-02-14T02:46:15;7.60;99.90
19817;DHT22;68323;49.394;8.434;2024-02-14T02:48:40;7.50;99.90
19817;DHT22;68323;49.394;8.434;2024-02-14T02:51:06;7.50;99.90
19817;DHT22;68323;49.394;8.434;2024-02-14T02:55:59;7.50;99.90
19817;DHT22;68323;49.394;8.434;2024-02-14T02:58:25;7.60;99.90
19817;DHT22;68323;49.394;8.434;2024-02-14T03:05:48;7.60;99.90
19817;DHT22;68323;49.394;8.434;2024-02-14T03:08:14;7.80;99.90
19817;DHT22;68323;49.394;8.434;2024-02-14T03:10:41;7.80;99.90
19817;DHT22;68323;49.394;8.434;2024-02-14T03:13:07;7.80;99.90
19817;DHT22;68323;49.394;8.434;2024-02-14T03:15:37;7.80;99.90
19817;DHT22;68323;49.394;8.434;2024-02-14T03:18:03;7.80;99.90
19817;DHT22;68323;49.394;8.434;2024-02-14T03:20:33;7.80;99.90
19817;DHT22;68323;49.394;8.434;2024-02-14T03:22:58;7.90;99.90
19817;DHT22;68323;49.394;8.434;2024-02-14T03:25:24;7.90;99.90
19817;DHT22;68323;49.394;8.434;2024-02-14T03:27:50;7.90;99.90
19817;DHT22;68323;49.394;8.434;2024-02-14T03:30:21;7.90;99.90
19817;DHT22;68323;49.394;8.434;2024-02-14T03:32:48;8.00;99.90
19817;DHT22;68323;49.394;8.434;2024-02-14T03:35:14;8.00;99.90
19817;DHT22;68323;49.394;8.434;2024-02-14T03:37:44;8.00;99.90
19817;DHT22;68323;49.394;8.434;2024-02-14T03:40:12;8.10;99.90
19817;DHT22;68323;49.394;8.434;2024-02-14T03:45:09;7.90;99.90
19817;DHT22;68323;49.394;8.434;2024-02-14T03:47:35;8.20;99.90
19817;DHT22;68323;49.394;8.434;2024-02-14T03:50:01;8.20;99.90
19817;DHT22;68323;49.394;8.434;2024-02-14T03:52:29;8.30;99.90
19817;DHT22;68323;49.394;8.434;2024-02-14T03:54:57;8.30;99.90
19817;DHT22;68323;49.394;8.434;2024-02-14T03:57:23;8.30;99.90
19817;DHT22;68323;49.394;8.434;2024-02-14T04:34:17;8.40;99.90
19817;DHT22;68323;49.394;8.434;2024-02-14T04:36:45;8.60;99.90
19817;DHT22;68323;49.394;8.434;2024-02-14T04:39:10;8.60;99.90
19817;DHT22;68323;49.394;8.434;2024-02-14T04:41:36;8.50;99.90
19817;DHT22;68323;49.394;8.434;2024-02-14T04:44:04;8.50;99.90
19817;DHT22;68323;49.394;8.434;2024-02-14T04:48:57;8.50;99.90
19817;DHT22;68323;49.394;8.434;2024-02-14T13:09:03;15.60;99.90
19817;DHT22;68323;49.394;8.434;2024-02-14T13:11:31;15.70;99.90
19817;DHT22;68323;49.394;8.434;2024-02-14T13:13:57;15.70;99.90
19817;DHT22;68323;49.394;8.434;2024-02-14T13:16:23;15.60;99.90
19817;DHT22;68323;49.394;8.434;2024-02-14T13:18:49;15.60;99.90
19817;DHT22;68323;49.394;8.434;2024-02-14T13:21:14;15.50;99.90
19817;DHT22;68323;49.394;8.434;2024-02-14T13:23:42;15.40;99.90
19817;DHT22;68323;49.394;8.434;2024-02-14T13:26:07;15.40;99.90
19817;DHT22;68323;49.394;8.434;2024-02-14T13:28:33;15.40;99.90
19817;DHT22;68323;49.394;8.434;2024-02-14T13:30:59;15.40;99.90
19817;DHT22;68323;49.394;8.434;2024-02-14T13:33:25;15.30;99.90
19817;DHT22;68323;49.394;8.434;2024-02-14T13:35:51;15.30;99.90
19817;DHT22;68323;49.394;8.434;2024-02-14T13:38:16;15.30;99.90
19817;DHT22;68323;49.394;8.434;2024-02-14T13:40:42;15.30;99.90
19817;DHT22;68323;49.394;8.434;2024-02-14T13:43:08;15.30;99.90
19817;DHT22;68323;49.394;8.434;2024-02-14T13:45:42;15.30;99.90
19817;DHT22;68323;49.394;8.434;2024-02-14T13:48:08;15.40;99.90
19817;DHT22;68323;49.394;8.434;2024-02-14T13:50:35;15.40;99.90
19817;DHT22;68323;49.394;8.434;2024-02-14T13:53:00;15.40;99.90
19817;DHT22;68323;49.394;8.434;2024-02-14T13:55:26;15.40;99.90
19817;DHT22;68323;49.394;8.434;2024-02-14T13:57:51;15.30;99.90
19817;DHT22;68323;49.394;8.434;2024-02-14T14:00:17;15.30;99.90
19817;DHT22;68323;49.394;8.434;2024-02-14T14:02:42;15.20;99.90
19817;DHT22;68323;49.394;8.434;2024-02-14T14:05:09;15.20;99.90
19817;DHT22;68323;49.394;8.434;2024-02-14T14:07:39;15.10;99.90
19817;DHT22;68323;49.394;8.434;2024-02-14T14:10:08;15.00;99.90
19817;DHT22;68323;49.394;8.434;2024-02-14T14:12:35;15.00;99.90
19817;DHT22;68323;49.394;8.434;2024-02-14T14:15:01;15.10;99.90
19817;DHT22;68323;49.394;8.434;2024-02-14T14:17:28;15.10;99.90
19817;DHT22;68323;49.394;8.434;2024-02-14T14:19:53;15.00;99.90
19817;DHT22;68323;49.394;8.434;2024-02-14T14:22:19;15.10;99.90
19817;DHT22;68323;49.394;8.434;2024-02-14T14:24:45;15.10;99.90
19817;DHT22;68323;49.394;8.434;2024-02-14T14:27:10;15.00;99.90
19817;DHT22;68323;49.394;8.434;2024-02-14T14:29:40;15.00;99.90
19817;DHT22;68323;49.394;8.434;2024-02-14T14:32:07;15.00;99.90
19817;DHT22;68323;49.394;8.434;2024-02-14T14:34:33;15.00;99.90
19817;DHT22;68323;49.394;8.434;2024-02-14T14:36:59;15.00;99.90
19817;DHT22;68323;49.394;8.434;2024-02-14T14:39:25;14.90;99.90
19817;DHT22;68323;49.394;8.434;2024-02-14T14:41:51;14.90;99.90
19817;DHT22;68323;49.394;8.434;2024-02-14T14:44:18;14.80;99.90
19817;DHT22;68323;49.394;8.434;2024-02-14T14:46:44;14.80;99.90
19817;DHT22;68323;49.394;8.434;2024-02-14T14:49:11;14.80;99.90
19817;DHT22;68323;49.394;8.434;2024-02-14T14:51:37;14.80;99.90
19817;DHT22;68323;49.394;8.434;2024-02-14T14:54:04;14.70;99.90
19817;DHT22;68323;49.394;8.434;2024-02-14T14:56:30;14.70;99.90
19817;DHT22;68323;49.394;8.434;2024-02-14T14:58:56;14.70;99.90
19817;DHT22;68323;49.394;8.434;2024-02-14T15:01:25;14.60;99.90
19817;DHT22;68323;49.394;8.434;2024-02-14T15:03:50;14.50;99.90
19817;DHT22;68323;49.394;8.434;2024-02-14T15:06:18;14.50;99.90
19817;DHT22;68323;49.394;8.434;2024-02-14T15:08:44;14.40;99.90
19817;DHT22;68323;49.394;8.434;2024-02-14T15:11:11;14.40;99.90
19817;DHT22;68323;49.394;8.434;2024-02-14T15:13:40;14.40;99.90
19817;DHT22;68323;49.394;8.434;2024-02-14T15:16:06;14.30;99.90
19817;DHT22;68323;49.394;8.434;2024-02-14T15:18:33;14.30;99.90
19817;DHT22;68323;49.394;8.434;2024-02-14T15:20:59;14.30;99.90
19817;DHT22;68323;49.394;8.434;2024-02-14T15:23:25;14.20;99.90
19817;DHT22;68323;49.394;8.434;2024-02-14T15:25:51;14.20;99.90
19817;DHT22;68323;49.394;8.434;2024-02-14T15:28:17;14.20;99.90
19817;DHT22;68323;49.394;8.434;2024-02-14T15:30:51;14.10;99.90
19817;DHT22;68323;49.394;8.434;2024-02-14T15:33:35;14.10;99.90
19817;DHT22;68323;49.394;8.434;2024-02-14T15:36:01;14.10;99.90
19817;DHT22;68323;49.394;8.434;2024-02-14T15:38:26;14.00;99.90
19817;DHT22;68323;49.394;8.434;2024-02-14T15:40:53;14.00;99.90
19817;DHT22;68323;49.394;8.434;2024-02-14T15:43:23;14.00;99.90
19817;DHT22;68323;49.394;8.434;2024-02-14T15:45:48;14.00;99.90
19817;DHT22;68323;49.394;8.434;2024-02-14T15:48:14;14.00;99.90
19817;DHT22;68323;49.394;8.434;2024-02-14T15:50:45;13.90;99.90
19817;DHT22;68323;49.394;8.434;2024-02-14T15:53:14;14.00;99.90
19817;DHT22;68323;49.394;8.434;2024-02-14T15:55:40;13.90;99.90
19817;DHT22;68323;49.394;8.434;2024-02-14T15:58:06;13.90;99.90
19817;DHT22;68323;49.394;8.434;2024-02-14T16:00:32;13.90;99.90
19817;DHT22;68323;49.394;8.434;2024-02-14T16:02:58;13.90;99.90
19817;DHT22;68323;49.394;8.434;2024-02-14T16:05:24;13.90;99.90
19817;DHT22;68323;49.394;8.434;2024-02-14T16:07:51;13.90;99.90
19817;DHT22;68323;49.394;8.434;2024-02-14T16:10:17;13.90;99.90
19817;DHT22;68323;49.394;8.434;2024-02-14T16:12:44;13.90;99.90
19817;DHT22;68323;49.394;8.434;2024-02-14T16:15:11;13.90;99.90
19817;DHT22;68323;49.394;8.434;2024-02-14T16:17:37;13.80;99.90
19817;DHT22;68323;49.394;8.434;2024-02-14T16:20:03;13.80;99.90
19817;DHT22;68323;49.394;8.434;2024-02-14T16:22:32;13.70;99.90
19817;DHT22;68323;49.394;8.434;2024-02-14T16:24:59;13.70;99.90
19817;DHT22;68323;49.394;8.434;2024-02-14T16:27:24;13.70;99.90
19817;DHT22;68323;49.394;8.434;2024-02-14T16:29:50;13.70;99.90
19817;DHT22;68323;49.394;8.434;2024-02-14T16:32:16;13.70;99.90
19817;DHT22;68323;49.394;8.434;2024-02-14T16:34:41;13.60;99.90
19817;DHT22;68323;49.394;8.434;2024-02-14T16:37:09;13.60;99.90
19817;DHT22;68323;49.394;8.434;2024-02-14T16:39:45;13.60;99.90
19817;DHT22;68323;49.394;8.434;2024-02-14T16:42:11;13.60;99.90
19817;DHT22;68323;49.394;8.434;2024-02-14T16:44:37;13.50;99.90
19817;DHT22;68323;49.394;8.434;2024-02-14T16:47:04;13.50;99.90
19817;DHT22;68323;49.394;8.434;2024-02-14T16:49:29;13.50;99.90
19817;DHT22;68323;49.394;8.434;2024-02-14T16:51:55;13.50;99.90
19817;DHT22;68323;49.394;8.434;2024-02-14T16:54:20;13.50;99.90
19817;DHT22;68323;49.394;8.434;2024-02-14T16:56:48;13.40;99.90
19817;DHT22;68323;49.394;8.434;2024-02-14T16:59:13;13.40;99.90
19817;DHT22;68323;49.394;8.434;2024-02-14T17:01:39;13.40;99.90
19817;DHT22;68323;49.394;8.434;2024-02-14T17:04:04;13.40;99.90
19817;DHT22;68323;49.394;8.434;2024-02-14T17:06:30;13.40;99.90
19817;DHT22;68323;49.394;8.434;2024-02-14T17:08:56;13.30;99.90
19817;DHT22;68323;49.394;8.434;2024-02-14T17:11:21;13.30;99.90
19817;DHT22;68323;49.394;8.434;2024-02-14T17:13:47;13.30;99.90
19817;DHT22;68323;49.394;8.434;2024-02-14T17:16:13;13.30;99.90
19817;DHT22;68323;49.394;8.434;2024-02-14T17:18:38;13.30;99.90
19817;DHT22;68323;49.394;8.434;2024-02-14T17:21:05;13.30;99.90
19817;DHT22;68323;49.394;8.434;2024-02-14T17:23:30;13.30;99.90
19817;DHT22;68323;49.394;8.434;2024-02-14T17:25:56;13.40;99.90
19817;DHT22;68323;49.394;8.434;2024-02-14T17:28:22;13.40;99.90
19817;DHT22;68323;49.394;8.434;2024-02-14T17:30:48;13.40;99.90
19817;DHT22;68323;49.394;8.434;2024-02-14T17:33:16;13.40;99.90
19817;DHT22;68323;49.394;8.434;2024-02-14T17:35:42;13.40;99.90
19817;DHT22;68323;49.394;8.434;2024-02-14T17:38:08;13.40;99.90
19817;DHT22;68323;49.394;8.434;2024-02-14T17:40:33;13.40;99.90
19817;DHT22;68323;49.394;8.434;2024-02-14T17:42:59;13.40;99.90
19817;DHT22;68323;49.394;8.434;2024-02-14T17:45:24;13.40;99.90
19817;DHT22;68323;49.394;8.434;2024-02-14T17:47:50;13.40;99.90
19817;DHT22;68323;49.394;8.434;2024-02-14T17:50:16;13.40;99.90
19817;DHT22;68323;49.394;8.434;2024-02-14T17:52:42;13.40;99.90
19817;DHT22;68323;49.394;8.434;2024-02-14T17:55:09;13.40;99.90
19817;DHT22;68323;49.394;8.434;2024-02-14T17:57:35;13.40;99.90
19817;DHT22;68323;49.394;8.434;2024-02-14T18:00:02;13.40;99.90
19817;DHT22;68323;49.394;8.434;2024-02-14T18:02:28;13.40;99.90
19817;DHT22;68323;49.394;8.434;2024-02-14T18:04:54;13.50;99.90
19817;DHT22;68323;49.394;8.434;2024-02-14T18:07:20;13.50;99.90
19817;DHT22;68323;49.394;8.434;2024-02-14T18:09:46;13.50;99.90
19817;DHT22;68323;49.394;8.434;2024-02-14T18:12:11;13.50;99.90
19817;DHT22;68323;49.394;8.434;2024-02-14T18:14:37;13.50;99.90
19817;DHT22;68323;49.394;8.434;2024-02-14T18:17:02;13.60;99.90
19817;DHT22;68323;49.394;8.434;2024-02-14T18:19:28;13.60;99.90
19817;DHT22;68323;49.394;8.434;2024-02-14T18:21:54;13.60;99.90
19817;DHT22;68323;49.394;8.434;2024-02-14T18:24:20;13.60;99.90
19817;DHT22;68323;49.394;8.434;2024-02-14T18:26:46;13.60;99.90
19817;DHT22;68323;49.394;8.434;2024-02-14T18:29:14;13.60;99.90
19817;DHT22;68323;49.394;8.434;2024-02-14T18:31:40;13.60;99.90
19817;DHT22;68323;49.394;8.434;2024-02-14T18:34:06;13.60;99.90
19817;DHT22;68323;49.394;8.434;2024-02-14T18:36:33;13.60;99.90
19817;DHT22;68323;49.394;8.434;2024-02-14T18:38:59;13.60;99.90
19817;DHT22;68323;49.394;8.434;2024-02-14T18:41:24;13.60;99.90
19817;DHT22;68323;49.394;8.434;2024-02-14T18:43:50;13.60;99.90
19817;DHT22;68323;49.394;8.434;2024-02-14T18:46:16;13.60;99.90
19817;DHT22;68323;49.394;8.434;2024-02-14T18:48:42;13.60;99.90
19817;DHT22;68323;49.394;8.434;2024-02-14T18:51:07;13.60;99.90
19817;DHT22;68323;49.394;8.434;2024-02-14T18:53:33;13.60;99.90
19817;DHT22;68323;49.394;8.434;2024-02-14T18:55:59;13.60;99.90
19817;DHT22;68323;49.394;8.434;2024-02-14T18:58:24;13.60;99.90
19817;DHT22;68323;49.394;8.434;2024-02-14T19:00:50;13.60;99.90
19817;DHT22;68323;49.394;8.434;2024-02-14T19:03:19;13.60;99.90
19817;DHT22;68323;49.394;8.434;2024-02-14T19:05:45;13.60;99.90
19817;DHT22;68323;49.394;8.434;2024-02-14T19:08:11;13.60;99.90
19817;DHT22;68323;49.394;8.434;2024-02-14T19:10:37;13.60;99.90
19817;DHT22;68323;49.394;8.434;2024-02-14T19:13:02;13.60;99.90
19817;DHT22;68323;49.394;8.434;2024-02-14T19:15:28;13.50;99.90
19817;DHT22;68323;49.394;8.434;2024-02-14T19:17:54;13.60;99.90
19817;DHT22;68323;49.394;8.434;2024-02-14T19:20:21;13.50;99.90
19817;DHT22;68323;49.394;8.434;2024-02-14T19:22:47;13.60;99.90
19817;DHT22;68323;49.394;8.434;2024-02-14T19:25:12;13.60;99.90
19817;DHT22;68323;49.394;8.434;2024-02-14T19:27:38;13.50;99.90
19817;DHT22;68323;49.394;8.434;2024-02-14T19:30:04;13.50;99.90
19817;DHT22;68323;49.394;8.434;2024-02-14T19:32:30;13.50;99.90
19817;DHT22;68323;49.394;8.434;2024-02-14T19:34:56;13.50;99.90
19817;DHT22;68323;49.394;8.434;2024-02-14T19:37:21;13.40;99.90
19817;DHT22;68323;49.394;8.434;2024-02-14T19:39:47;13.40;99.90
19817;DHT22;68323;49.394;8.434;2024-02-14T19:42:12;13.30;99.90
19817;DHT22;68323;49.394;8.434;2024-02-14T19:44:38;13.30;99.90
19817;DHT22;68323;49.394;8.434;2024-02-14T19:47:04;13.30;99.90
19817;DHT22;68323;49.394;8.434;2024-02-14T19:49:30;13.30;99.90
19817;DHT22;68323;49.394;8.434;2024-02-14T19:51:57;13.20;99.90
19817;DHT22;68323;49.394;8.434;2024-02-14T19:54:23;13.30;99.90
19817;DHT22;68323;49.394;8.434;2024-02-14T19:56:49;13.30;99.90
19817;DHT22;68323;49.394;8.434;2024-02-14T19:59:15;13.20;99.90
19817;DHT22;68323;49.394;8.434;2024-02-14T20:01:41;13.20;99.90
19817;DHT22;68323;49.394;8.434;2024-02-14T20:04:07;13.20;99.90
19817;DHT22;68323;49.394;8.434;2024-02-14T20:06:35;13.20;99.90
19817;DHT22;68323;49.394;8.434;2024-02-14T20:09:00;13.10;99.90
19817;DHT22;68323;49.394;8.434;2024-02-14T20:11:27;13.20;99.90
19817;DHT22;68323;49.394;8.434;2024-02-14T20:13:53;13.10;99.90
19817;DHT22;68323;49.394;8.434;2024-02-14T20:16:19;13.10;99.90
19817;DHT22;68323;49.394;8.434;2024-02-14T20:18:45;13.00;99.90
19817;DHT22;68323;49.394;8.434;2024-02-14T20:21:11;13.00;99.90
19817;DHT22;68323;49.394;8.434;2024-02-14T20:23:37;12.90;99.90
19817;DHT22;68323;49.394;8.434;2024-02-14T20:26:02;12.80;99.90
19817;DHT22;68323;49.394;8.434;2024-02-14T20:28:28;12.80;99.90
19817;DHT22;68323;49.394;8.434;2024-02-14T20:30:54;12.80;99.90
19817;DHT22;68323;49.394;8.434;2024-02-14T20:33:20;12.80;99.90
19817;DHT22;68323;49.394;8.434;2024-02-14T20:35:50;12.70;99.90
19817;DHT22;68323;49.394;8.434;2024-02-14T20:38:16;12.70;99.90
19817;DHT22;68323;49.394;8.434;2024-02-14T20:40:42;12.70;99.90
19817;DHT22;68323;49.394;8.434;2024-02-14T20:43:07;12.70;99.90
19817;DHT22;68323;49.394;8.434;2024-02-14T20:45:33;12.60;99.90
19817;DHT22;68323;49.394;8.434;2024-02-14T20:48:01;12.60;99.90
19817;DHT22;68323;49.394;8.434;2024-02-14T20:50:26;12.60;99.90
19817;DHT22;68323;49.394;8.434;2024-02-14T20:52:52;12.50;99.90
19817;DHT22;68323;49.394;8.434;2024-02-14T20:55:18;12.50;99.90
19817;DHT22;68323;49.394;8.434;2024-02-14T20:57:44;12.50;99.90
19817;DHT22;68323;49.394;8.434;2024-02-14T21:00:10;12.50;99.90
19817;DHT22;68323;49.394;8.434;2024-02-14T21:02:36;12.40;99.90
19817;DHT22;68323;49.394;8.434;2024-02-14T21:05:03;12.40;99.90
19817;DHT22;68323;49.394;8.434;2024-02-14T21:07:28;12.40;99.90
19817;DHT22;68323;49.394;8.434;2024-02-14T21:09:54;12.40;99.90
19817;DHT22;68323;49.394;8.434;2024-02-14T21:12:19;12.40;99.90
19817;DHT22;68323;49.394;8.434;2024-02-14T21:14:48;12.40;99.90
19817;DHT22;68323;49.394;8.434;2024-02-14T21:17:14;12.40;99.90
19817;DHT22;68323;49.394;8.434;2024-02-14T21:19:40;12.40;99.90
19817;DHT22;68323;49.394;8.434;2024-02-14T21:22:05;12.30;99.90
19817;DHT22;68323;49.394;8.434;2024-02-14T21:24:31;12.30;99.90
19817;DHT22;68323;49.394;8.434;2024-02-14T21:26:56;12.30;99.90
19817;DHT22;68323;49.394;8.434;2024-02-14T21:29:23;12.30;99.90
19817;DHT22;68323;49.394;8.434;2024-02-14T21:31:49;12.30;99.90
19817;DHT22;68323;49.394;8.434;2024-02-14T21:34:15;12.30;99.90
19817;DHT22;68323;49.394;8.434;2024-02-14T21:36:46;12.30;99.90
19817;DHT22;68323;49.394;8.434;2024-02-14T21:39:12;12.30;99.90
19817;DHT22;68323;49.394;8.434;2024-02-14T21:41:43;12.30;99.90
19817;DHT22;68323;49.394;8.434;2024-02-14T21:44:11;12.30;99.90
19817;DHT22;68323;49.394;8.434;2024-02-14T21:46:37;12.30;99.90
19817;DHT22;68323;49.394;8.434;2024-02-14T21:49:03;12.30;99.90
19817;DHT22;68323;49.394;8.434;2024-02-14T21:51:33;12.30;99.90
19817;DHT22;68323;49.394;8.434;2024-02-14T21:53:59;12.30;99.90
19817;DHT22;68323;49.394;8.434;2024-02-14T21:56:24;12.30;99.90
19817;DHT22;68323;49.394;8.434;2024-02-14T21:58:50;12.40;99.90
19817;DHT22;68323;49.394;8.434;2024-02-14T22:01:16;12.30;99.90
19817;DHT22;68323;49.394;8.434;2024-02-14T22:03:42;12.30;99.90
19817;DHT22;68323;49.394;8.434;2024-02-14T22:06:07;12.40;99.90
19817;DHT22;68323;49.394;8.434;2024-02-14T22:08:33;12.40;99.90
19817;DHT22;68323;49.394;8.434;2024-02-14T22:11:01;12.40;99.90
19817;DHT22;68323;49.394;8.434;2024-02-14T22:13:27;12.40;99.90
19817;DHT22;68323;49.394;8.434;2024-02-14T22:15:56;12.40;99.90
19817;DHT22;68323;49.394;8.434;2024-02-14T22:18:21;12.30;99.90
19817;DHT22;68323;49.394;8.434;2024-02-14T22:20:47;12.30;99.90
19817;DHT22;68323;49.394;8.434;2024-02-14T22:23:13;12.30;99.90
19817;DHT22;68323;49.394;8.434;2024-02-14T22:25:39;12.30;99.90
19817;DHT22;68323;49.394;8.434;2024-02-14T22:28:05;12.30;99.90
19817;DHT22;68323;49.394;8.434;2024-02-14T22:30:31;12.30;99.90
19817;DHT22;68323;49.394;8.434;2024-02-14T22:32:57;12.30;99.90
19817;DHT22;68323;49.394;8.434;2024-02-14T22:35:24;12.30;99.90
19817;DHT22;68323;49.394;8.434;2024-02-14T22:37:50;12.30;99.90
19817;DHT22;68323;49.394;8.434;2024-02-14T22:40:15;12.30;99.90
19817;DHT22;68323;49.394;8.434;2024-02-14T22:42:41;12.30;99.90
19817;DHT22;68323;49.394;8.434;2024-02-14T22:45:08;12.30;99.90
19817;DHT22;68323;49.394;8.434;2024-02-14T22:47:36;12.30;99.90
19817;DHT22;68323;49.394;8.434;2024-02-14T22:50:01;12.30;99.90
19817;DHT22;68323;49.394;8.434;2024-02-14T22:52:27;12.30;99.90
19817;DHT22;68323;49.394;8.434;2024-02-14T22:54:52;12.30;99.90
19817;DHT22;68323;49.394;8.434;2024-02-14T22:57:18;12.30;99.90
19817;DHT22;68323;49.394;8.434;2024-02-14T22:59:44;12.30;99.90
19817;DHT22;68323;49.394;8.434;2024-02-14T23:02:09;12.30;99.90
19817;DHT22;68323;49.394;8.434;2024-02-14T23:04:35;12.30;99.90
19817;DHT22;68323;49.394;8.434;2024-02-14T23:07:03;12.30;99.90
19817;DHT22;68323;49.394;8.434;2024-02-14T23:09:31;12.30;99.90
19817;DHT22;68323;49.394;8.434;2024-02-14T23:11:56;12.40;99.90
19817;DHT22;68323;49.394;8.434;2024-02-14T23:14:22;12.40;99.90
19817;DHT22;68323;49.394;8.434;2024-02-14T23:16:47;12.40;99.90
19817;DHT22;68323;49.394;8.434;2024-02-14T23:19:13;12.40;99.90
19817;DHT22;68323;49.394;8.434;2024-02-14T23:21:38;12.40;99.90
19817;DHT22;68323;49.394;8.434;2024-02-14T23:24:04;12.40;99.90
19817;DHT22;68323;49.394;8.434;2024-02-14T23:26:30;12.40;99.90
19817;DHT22;68323;49.394;8.434;2024-02-14T23:28:55;12.40;99.90
19817;DHT22;68323;49.394;8.434;2024-02-14T23:31:21;12.40;99.90
19817;DHT22;68323;49.394;8.434;2024-02-14T23:33:48;12.40;99.90
19817;DHT22;68323;49.394;8.434;2024-02-14T23:36:15;12.50;99.90
19817;DHT22;68323;49.394;8.434;2024-02-14T23:38:42;12.50;99.90
19817;DHT22;68323;49.394;8.434;2024-02-14T23:41:09;12.50;99.90
19817;DHT22;68323;49.394;8.434;2024-02-14T23:43:35;12.50;99.90
19817;DHT22;68323;49.394;8.434;2024-02-14T23:46:00;12.50;99.90
19817;DHT22;68323;49.394;8.434;2024-02-14T23:48:26;12.50;99.90
19817;DHT22;68323;49.394;8.434;2024-02-14T23:50:51;12.50;99.90
19817;DHT22;68323;49.394;8.434;2024-02-14T23:53:17;12.50;99.90
19817;DHT22;68323;49.394;8.434;2024-02-14T23:55:43;12.50;99.90
19817;DHT22;68323;49.394;8.434;2024-02-14T23:58:09;12.60;99.90
